sensor_id;sensor_type;location;lat;lon;timestamp;P1;durP1;ratioP1;P2;durP2;ratioP2
44143;SDS011;68165;51.920;4.492;2023-05-07T00:00:15;18.00;;;11.03;;
44143;SDS011;68165;51.920;4.492;2023-05-07T00:02:42;16.25;;;9.73;;
44143;SDS011;68165;51.920;4.492;2023-05-07T00:05:09;16.50;;;9.80;;
44143;SDS011;68165;51.920;4.492;2023-05-07T00:07:35;16.63;;;9.70;;
44143;SDS011;68165;51.920;4.492;2023-05-07T00:10:00;15.10;;;9.73;;
44143;SDS011;68165;51.920;4.492;2023-05-07T00:12:26;16.63;;;10.38;;
44143;SDS011;68165;51.920;4.492;2023-05-07T00:14:51;15.57;;;9.83;;
44143;SDS011;68165;51.920;4.492;2023-05-07T00:17:17;15.93;;;9.27;;
44143;SDS011;68165;51.920;4.492;2023-05-07T00:19:42;16.40;;;9.63;;
44143;SDS011;68165;51.920;4.492;2023-05-07T00:22:08;16.07;;;9.60;;
44143;SDS011;68165;51.920;4.492;2023-05-07T00:24:33;17.13;;;10.00;;
44143;SDS011;68165;51.920;4.492;2023-05-07T00:26:59;19.30;;;10.63;;
44143;SDS011;68165;51.920;4.492;2023-05-07T00:29:25;20.63;;;11.27;;
44143;SDS011;68165;51.920;4.492;2023-05-07T00:31:50;19.87;;;11.43;;
44143;SDS011;68165;51.920;4.492;2023-05-07T00:34:16;20.00;;;11.30;;
44143;SDS011;68165;51.920;4.492;2023-05-07T00:36:41;20.77;;;10.90;;
44143;SDS011;68165;51.920;4.492;2023-05-07T00:39:06;20.73;;;11.07;;
44143;SDS011;68165;51.920;4.492;2023-05-07T00:41:32;19.50;;;11.65;;
44143;SDS011;68165;51.920;4.492;2023-05-07T00:43:57;17.60;;;10.47;;
44143;SDS011;68165;51.920;4.492;2023-05-07T00:46:23;16.33;;;10.33;;
44143;SDS011;68165;51.920;4.492;2023-05-07T00:48:49;15.73;;;10.40;;
44143;SDS011;68165;51.920;4.492;2023-05-07T00:51:16;15.73;;;10.23;;
44143;SDS011;68165;51.920;4.492;2023-05-07T00:53:42;19.07;;;11.07;;
44143;SDS011;68165;51.920;4.492;2023-05-07T00:56:08;19.75;;;11.88;;
44143;SDS011;68165;51.920;4.492;2023-05-07T00:58:33;18.93;;;12.00;;
44143;SDS011;68165;51.920;4.492;2023-05-07T01:00:59;18.48;;;12.13;;
44143;SDS011;68165;51.920;4.492;2023-05-07T01:03:25;19.17;;;11.80;;
44143;SDS011;68165;51.920;4.492;2023-05-07T01:05:51;18.73;;;11.73;;
44143;SDS011;68165;51.920;4.492;2023-05-07T01:08:18;20.70;;;11.80;;
44143;SDS011;68165;51.920;4.492;2023-05-07T01:10:43;19.35;;;12.48;;
44143;SDS011;68165;51.920;4.492;2023-05-07T01:13:10;17.40;;;11.90;;
44143;SDS011;68165;51.920;4.492;2023-05-07T01:15:37;20.55;;;12.52;;
44143;SDS011;68165;51.920;4.492;2023-05-07T01:18:03;18.33;;;12.15;;
44143;SDS011;68165;51.920;4.492;2023-05-07T01:20:28;18.00;;;11.80;;
44143;SDS011;68165;51.920;4.492;2023-05-07T01:22:54;19.90;;;12.27;;
44143;SDS011;68165;51.920;4.492;2023-05-07T01:25:20;20.93;;;12.33;;
44143;SDS011;68165;51.920;4.492;2023-05-07T01:27:46;21.77;;;12.83;;
44143;SDS011;68165;51.920;4.492;2023-05-07T01:30:11;20.55;;;12.88;;
44143;SDS011;68165;51.920;4.492;2023-05-07T01:32:39;19.98;;;12.63;;
44143;SDS011;68165;51.920;4.492;2023-05-07T01:35:10;20.00;;;12.60;;
44143;SDS011;68165;51.920;4.492;2023-05-07T01:37:37;20.27;;;12.98;;
44143;SDS011;68165;51.920;4.492;2023-05-07T01:40:04;21.52;;;13.45;;
44143;SDS011;68165;51.920;4.492;2023-05-07T01:42:30;19.65;;;13.05;;
44143;SDS011;68165;51.920;4.492;2023-05-07T01:44:56;20.17;;;13.18;;
44143;SDS011;68165;51.920;4.492;2023-05-07T01:47:21;19.07;;;13.27;;
44143;SDS011;68165;51.920;4.492;2023-05-07T01:49:47;20.73;;;13.20;;
44143;SDS011;68165;51.920;4.492;2023-05-07T01:52:13;21.73;;;13.33;;
44143;SDS011;68165;51.920;4.492;2023-05-07T01:54:39;20.52;;;13.45;;
44143;SDS011;68165;51.920;4.492;2023-05-07T01:57:04;19.50;;;13.00;;
44143;SDS011;68165;51.920;4.492;2023-05-07T01:59:30;20.30;;;13.03;;
44143;SDS011;68165;51.920;4.492;2023-05-07T02:01:55;21.03;;;13.97;;
44143;SDS011;68165;51.920;4.492;2023-05-07T02:04:20;22.63;;;13.60;;
44143;SDS011;68165;51.920;4.492;2023-05-07T02:06:46;21.07;;;13.53;;
44143;SDS011;68165;51.920;4.492;2023-05-07T02:09:11;21.17;;;14.20;;
44143;SDS011;68165;51.920;4.492;2023-05-07T02:11:36;21.80;;;14.70;;
44143;SDS011;68165;51.920;4.492;2023-05-07T02:14:02;21.30;;;13.70;;
44143;SDS011;68165;51.920;4.492;2023-05-07T02:16:27;21.33;;;14.27;;
44143;SDS011;68165;51.920;4.492;2023-05-07T02:18:52;21.90;;;14.73;;
44143;SDS011;68165;51.920;4.492;2023-05-07T02:21:18;20.73;;;14.30;;
44143;SDS011;68165;51.920;4.492;2023-05-07T02:23:43;21.07;;;14.13;;
44143;SDS011;68165;51.920;4.492;2023-05-07T02:26:08;21.33;;;14.30;;
44143;SDS011;68165;51.920;4.492;2023-05-07T02:28:34;22.23;;;14.80;;
44143;SDS011;68165;51.920;4.492;2023-05-07T02:31:02;20.63;;;13.77;;
44143;SDS011;68165;51.920;4.492;2023-05-07T02:33:28;19.23;;;13.55;;
44143;SDS011;68165;51.920;4.492;2023-05-07T02:35:53;21.17;;;14.03;;
44143;SDS011;68165;51.920;4.492;2023-05-07T02:38:18;20.02;;;13.63;;
44143;SDS011;68165;51.920;4.492;2023-05-07T02:40:44;20.70;;;14.17;;
44143;SDS011;68165;51.920;4.492;2023-05-07T02:43:09;21.07;;;13.30;;
44143;SDS011;68165;51.920;4.492;2023-05-07T02:45:35;20.33;;;13.33;;
44143;SDS011;68165;51.920;4.492;2023-05-07T02:48:02;18.70;;;12.95;;
44143;SDS011;68165;51.920;4.492;2023-05-07T02:50:28;19.73;;;12.60;;
44143;SDS011;68165;51.920;4.492;2023-05-07T02:52:53;16.43;;;12.03;;
44143;SDS011;68165;51.920;4.492;2023-05-07T02:55:20;17.48;;;12.13;;
44143;SDS011;68165;51.920;4.492;2023-05-07T02:57:45;17.35;;;11.77;;
44143;SDS011;68165;51.920;4.492;2023-05-07T03:00:19;16.30;;;11.75;;
44143;SDS011;68165;51.920;4.492;2023-05-07T03:02:45;17.75;;;11.77;;
44143;SDS011;68165;51.920;4.492;2023-05-07T03:05:10;17.38;;;12.60;;
44143;SDS011;68165;51.920;4.492;2023-05-07T03:07:37;18.70;;;11.52;;
44143;SDS011;68165;51.920;4.492;2023-05-07T03:10:03;16.58;;;11.63;;
44143;SDS011;68165;51.920;4.492;2023-05-07T03:12:30;16.85;;;11.50;;
44143;SDS011;68165;51.920;4.492;2023-05-07T03:14:56;18.05;;;11.50;;
44143;SDS011;68165;51.920;4.492;2023-05-07T03:17:21;19.20;;;11.90;;
44143;SDS011;68165;51.920;4.492;2023-05-07T03:19:47;14.77;;;10.98;;
44143;SDS011;68165;51.920;4.492;2023-05-07T03:22:12;17.60;;;11.53;;
44143;SDS011;68165;51.920;4.492;2023-05-07T03:24:37;16.17;;;11.00;;
44143;SDS011;68165;51.920;4.492;2023-05-07T03:27:03;16.53;;;11.13;;
44143;SDS011;68165;51.920;4.492;2023-05-07T03:29:28;20.37;;;12.07;;
44143;SDS011;68165;51.920;4.492;2023-05-07T03:31:53;18.02;;;11.25;;
44143;SDS011;68165;51.920;4.492;2023-05-07T03:34:19;18.67;;;10.97;;
44143;SDS011;68165;51.920;4.492;2023-05-07T03:36:47;19.35;;;12.13;;
44143;SDS011;68165;51.920;4.492;2023-05-07T03:39:13;18.90;;;11.85;;
44143;SDS011;68165;51.920;4.492;2023-05-07T03:41:38;19.23;;;11.80;;
44143;SDS011;68165;51.920;4.492;2023-05-07T03:44:04;17.27;;;11.07;;
44143;SDS011;68165;51.920;4.492;2023-05-07T03:46:29;15.87;;;11.33;;
44143;SDS011;68165;51.920;4.492;2023-05-07T03:48:55;16.43;;;11.63;;
44143;SDS011;68165;51.920;4.492;2023-05-07T03:51:20;17.83;;;11.60;;
44143;SDS011;68165;51.920;4.492;2023-05-07T03:53:46;15.97;;;10.90;;
44143;SDS011;68165;51.920;4.492;2023-05-07T03:56:11;18.70;;;11.60;;
44143;SDS011;68165;51.920;4.492;2023-05-07T03:58:36;16.73;;;10.57;;
44143;SDS011;68165;51.920;4.492;2023-05-07T04:01:02;18.27;;;11.00;;
44143;SDS011;68165;51.920;4.492;2023-05-07T04:03:28;16.57;;;11.10;;
44143;SDS011;68165;51.920;4.492;2023-05-07T04:05:54;15.63;;;10.35;;
44143;SDS011;68165;51.920;4.492;2023-05-07T04:08:20;16.08;;;10.32;;
44143;SDS011;68165;51.920;4.492;2023-05-07T04:10:45;15.25;;;10.18;;
44143;SDS011;68165;51.920;4.492;2023-05-07T04:13:10;16.73;;;9.97;;
44143;SDS011;68165;51.920;4.492;2023-05-07T04:15:36;15.07;;;10.10;;
44143;SDS011;68165;51.920;4.492;2023-05-07T04:18:01;13.93;;;9.63;;
44143;SDS011;68165;51.920;4.492;2023-05-07T04:20:27;13.93;;;9.73;;
44143;SDS011;68165;51.920;4.492;2023-05-07T04:22:52;17.40;;;10.13;;
44143;SDS011;68165;51.920;4.492;2023-05-07T04:25:17;16.80;;;10.13;;
44143;SDS011;68165;51.920;4.492;2023-05-07T04:27:43;15.23;;;9.93;;
44143;SDS011;68165;51.920;4.492;2023-05-07T04:30:08;16.97;;;10.17;;
44143;SDS011;68165;51.920;4.492;2023-05-07T04:32:34;17.37;;;10.20;;
44143;SDS011;68165;51.920;4.492;2023-05-07T04:34:59;14.17;;;8.90;;
44143;SDS011;68165;51.920;4.492;2023-05-07T04:37:25;15.83;;;9.50;;
44143;SDS011;68165;51.920;4.492;2023-05-07T04:39:50;14.82;;;9.32;;
44143;SDS011;68165;51.920;4.492;2023-05-07T04:42:16;16.20;;;10.07;;
44143;SDS011;68165;51.920;4.492;2023-05-07T04:44:43;14.13;;;9.57;;
44143;SDS011;68165;51.920;4.492;2023-05-07T04:47:09;14.18;;;9.25;;
44143;SDS011;68165;51.920;4.492;2023-05-07T04:49:35;12.50;;;8.52;;
44143;SDS011;68165;51.920;4.492;2023-05-07T04:52:00;14.15;;;8.95;;
44143;SDS011;68165;51.920;4.492;2023-05-07T04:54:26;12.38;;;8.10;;
44143;SDS011;68165;51.920;4.492;2023-05-07T04:56:52;14.20;;;9.20;;
44143;SDS011;68165;51.920;4.492;2023-05-07T04:59:17;13.33;;;8.70;;
44143;SDS011;68165;51.920;4.492;2023-05-07T05:01:43;14.83;;;9.23;;
44143;SDS011;68165;51.920;4.492;2023-05-07T05:04:08;13.87;;;8.87;;
44143;SDS011;68165;51.920;4.492;2023-05-07T05:06:34;15.17;;;8.03;;
44143;SDS011;68165;51.920;4.492;2023-05-07T05:09:00;16.23;;;9.82;;
44143;SDS011;68165;51.920;4.492;2023-05-07T05:11:26;15.07;;;9.02;;
44143;SDS011;68165;51.920;4.492;2023-05-07T05:13:51;15.50;;;9.37;;
44143;SDS011;68165;51.920;4.492;2023-05-07T05:16:16;13.50;;;9.17;;
44143;SDS011;68165;51.920;4.492;2023-05-07T05:18:42;15.27;;;9.10;;
44143;SDS011;68165;51.920;4.492;2023-05-07T05:21:07;14.80;;;9.47;;
44143;SDS011;68165;51.920;4.492;2023-05-07T05:23:33;17.40;;;9.73;;
44143;SDS011;68165;51.920;4.492;2023-05-07T05:25:58;14.50;;;9.65;;
44143;SDS011;68165;51.920;4.492;2023-05-07T05:28:24;17.13;;;9.77;;
44143;SDS011;68165;51.920;4.492;2023-05-07T05:30:50;14.07;;;10.13;;
44143;SDS011;68165;51.920;4.492;2023-05-07T05:33:16;16.63;;;9.30;;
44143;SDS011;68165;51.920;4.492;2023-05-07T05:35:41;17.27;;;10.63;;
44143;SDS011;68165;51.920;4.492;2023-05-07T05:38:07;15.65;;;10.02;;
44143;SDS011;68165;51.920;4.492;2023-05-07T05:40:33;15.85;;;9.93;;
44143;SDS011;68165;51.920;4.492;2023-05-07T05:42:58;17.60;;;10.53;;
44143;SDS011;68165;51.920;4.492;2023-05-07T05:45:24;16.17;;;10.70;;
44143;SDS011;68165;51.920;4.492;2023-05-07T05:47:50;17.13;;;11.30;;
44143;SDS011;68165;51.920;4.492;2023-05-07T05:50:15;16.60;;;11.43;;
44143;SDS011;68165;51.920;4.492;2023-05-07T05:52:40;16.77;;;11.13;;
44143;SDS011;68165;51.920;4.492;2023-05-07T05:55:07;19.42;;;11.70;;
44143;SDS011;68165;51.920;4.492;2023-05-07T05:57:33;19.42;;;11.93;;
44143;SDS011;68165;51.920;4.492;2023-05-07T05:59:58;20.70;;;13.47;;
44143;SDS011;68165;51.920;4.492;2023-05-07T06:02:24;21.20;;;14.67;;
44143;SDS011;68165;51.920;4.492;2023-05-07T06:04:49;21.50;;;14.43;;
44143;SDS011;68165;51.920;4.492;2023-05-07T06:07:14;24.10;;;15.90;;
44143;SDS011;68165;51.920;4.492;2023-05-07T06:09:40;22.08;;;14.60;;
44143;SDS011;68165;51.920;4.492;2023-05-07T06:12:05;26.23;;;16.00;;
44143;SDS011;68165;51.920;4.492;2023-05-07T06:14:31;25.80;;;16.47;;
44143;SDS011;68165;51.920;4.492;2023-05-07T06:16:56;23.27;;;15.27;;
44143;SDS011;68165;51.920;4.492;2023-05-07T06:19:22;22.60;;;15.37;;
44143;SDS011;68165;51.920;4.492;2023-05-07T06:21:49;25.27;;;16.50;;
44143;SDS011;68165;51.920;4.492;2023-05-07T06:24:14;22.27;;;15.05;;
44143;SDS011;68165;51.920;4.492;2023-05-07T06:26:47;25.30;;;15.07;;
44143;SDS011;68165;51.920;4.492;2023-05-07T06:29:12;21.40;;;13.90;;
44143;SDS011;68165;51.920;4.492;2023-05-07T06:31:38;21.77;;;14.70;;
44143;SDS011;68165;51.920;4.492;2023-05-07T06:34:05;18.53;;;13.20;;
44143;SDS011;68165;51.920;4.492;2023-05-07T06:36:30;20.00;;;14.27;;
44143;SDS011;68165;51.920;4.492;2023-05-07T06:38:56;19.40;;;13.07;;
44143;SDS011;68165;51.920;4.492;2023-05-07T06:41:22;19.48;;;12.63;;
44143;SDS011;68165;51.920;4.492;2023-05-07T06:43:47;20.10;;;11.63;;
44143;SDS011;68165;51.920;4.492;2023-05-07T06:46:13;17.75;;;11.88;;
44143;SDS011;68165;51.920;4.492;2023-05-07T06:48:38;16.40;;;10.53;;
44143;SDS011;68165;51.920;4.492;2023-05-07T06:51:03;16.83;;;10.73;;
44143;SDS011;68165;51.920;4.492;2023-05-07T06:53:29;14.73;;;9.77;;
44143;SDS011;68165;51.920;4.492;2023-05-07T06:55:55;16.90;;;9.88;;
44143;SDS011;68165;51.920;4.492;2023-05-07T06:58:21;13.60;;;8.95;;
44143;SDS011;68165;51.920;4.492;2023-05-07T07:00:46;15.87;;;10.00;;
44143;SDS011;68165;51.920;4.492;2023-05-07T07:03:13;14.13;;;9.38;;
44143;SDS011;68165;51.920;4.492;2023-05-07T07:05:42;15.40;;;9.23;;
44143;SDS011;68165;51.920;4.492;2023-05-07T07:08:08;13.95;;;8.90;;
44143;SDS011;68165;51.920;4.492;2023-05-07T07:10:34;13.57;;;8.82;;
44143;SDS011;68165;51.920;4.492;2023-05-07T07:13:00;15.07;;;8.47;;
44143;SDS011;68165;51.920;4.492;2023-05-07T07:15:25;13.97;;;9.43;;
44143;SDS011;68165;51.920;4.492;2023-05-07T07:17:51;16.70;;;10.25;;
44143;SDS011;68165;51.920;4.492;2023-05-07T07:20:17;14.30;;;9.07;;
44143;SDS011;68165;51.920;4.492;2023-05-07T07:22:43;14.32;;;8.82;;
44143;SDS011;68165;51.920;4.492;2023-05-07T07:25:09;13.95;;;9.32;;
44143;SDS011;68165;51.920;4.492;2023-05-07T07:27:36;14.55;;;9.27;;
44143;SDS011;68165;51.920;4.492;2023-05-07T07:30:01;14.43;;;9.27;;
44143;SDS011;68165;51.920;4.492;2023-05-07T07:32:27;15.03;;;10.13;;
44143;SDS011;68165;51.920;4.492;2023-05-07T07:34:52;14.73;;;9.67;;
44143;SDS011;68165;51.920;4.492;2023-05-07T07:37:17;16.08;;;9.75;;
44143;SDS011;68165;51.920;4.492;2023-05-07T07:39:43;14.73;;;10.00;;
44143;SDS011;68165;51.920;4.492;2023-05-07T07:42:10;18.27;;;11.40;;
44143;SDS011;68165;51.920;4.492;2023-05-07T07:44:35;15.83;;;10.30;;
44143;SDS011;68165;51.920;4.492;2023-05-07T07:47:00;15.87;;;10.10;;
44143;SDS011;68165;51.920;4.492;2023-05-07T07:49:26;15.03;;;10.17;;
44143;SDS011;68165;51.920;4.492;2023-05-07T07:51:52;14.48;;;10.07;;
44143;SDS011;68165;51.920;4.492;2023-05-07T07:54:17;14.20;;;9.30;;
44143;SDS011;68165;51.920;4.492;2023-05-07T07:56:42;13.27;;;8.80;;
44143;SDS011;68165;51.920;4.492;2023-05-07T07:59:08;14.53;;;9.10;;
44143;SDS011;68165;51.920;4.492;2023-05-07T08:01:33;15.87;;;9.37;;
44143;SDS011;68165;51.920;4.492;2023-05-07T08:03:59;12.50;;;8.77;;
44143;SDS011;68165;51.920;4.492;2023-05-07T08:06:25;13.07;;;9.25;;
44143;SDS011;68165;51.920;4.492;2023-05-07T08:08:51;14.97;;;9.10;;
44143;SDS011;68165;51.920;4.492;2023-05-07T08:11:16;15.37;;;9.40;;
44143;SDS011;68165;51.920;4.492;2023-05-07T08:13:42;15.93;;;9.37;;
44143;SDS011;68165;51.920;4.492;2023-05-07T08:16:08;16.73;;;10.00;;
44143;SDS011;68165;51.920;4.492;2023-05-07T08:18:36;15.03;;;10.33;;
44143;SDS011;68165;51.920;4.492;2023-05-07T08:21:02;13.93;;;9.45;;
44143;SDS011;68165;51.920;4.492;2023-05-07T08:23:27;14.67;;;9.20;;
44143;SDS011;68165;51.920;4.492;2023-05-07T08:25:53;15.40;;;9.93;;
44143;SDS011;68165;51.920;4.492;2023-05-07T08:28:18;14.48;;;10.02;;
44143;SDS011;68165;51.920;4.492;2023-05-07T08:30:44;15.43;;;10.25;;
44143;SDS011;68165;51.920;4.492;2023-05-07T08:33:11;14.10;;;10.02;;
44143;SDS011;68165;51.920;4.492;2023-05-07T08:35:36;12.68;;;9.07;;
44143;SDS011;68165;51.920;4.492;2023-05-07T08:38:02;14.47;;;9.60;;
44143;SDS011;68165;51.920;4.492;2023-05-07T08:40:30;12.83;;;8.97;;
44143;SDS011;68165;51.920;4.492;2023-05-07T08:43:06;13.48;;;9.15;;
44143;SDS011;68165;51.920;4.492;2023-05-07T08:45:33;13.77;;;8.88;;
44143;SDS011;68165;51.920;4.492;2023-05-07T08:48:01;15.02;;;9.55;;
44143;SDS011;68165;51.920;4.492;2023-05-07T08:50:28;12.98;;;8.43;;
44143;SDS011;68165;51.920;4.492;2023-05-07T08:52:54;14.48;;;9.65;;
44143;SDS011;68165;51.920;4.492;2023-05-07T08:55:21;15.77;;;9.80;;
44143;SDS011;68165;51.920;4.492;2023-05-07T08:57:46;13.90;;;9.75;;
44143;SDS011;68165;51.920;4.492;2023-05-07T09:00:13;13.25;;;8.93;;
44143;SDS011;68165;51.920;4.492;2023-05-07T09:02:38;15.27;;;9.90;;
44143;SDS011;68165;51.920;4.492;2023-05-07T09:05:04;15.50;;;9.83;;
44143;SDS011;68165;51.920;4.492;2023-05-07T09:07:30;14.23;;;10.32;;
44143;SDS011;68165;51.920;4.492;2023-05-07T09:09:56;14.60;;;9.68;;
44143;SDS011;68165;51.920;4.492;2023-05-07T09:12:27;13.60;;;9.05;;
44143;SDS011;68165;51.920;4.492;2023-05-07T09:14:53;14.17;;;9.20;;
44143;SDS011;68165;51.920;4.492;2023-05-07T09:17:18;14.70;;;9.40;;
44143;SDS011;68165;51.920;4.492;2023-05-07T09:19:44;13.45;;;9.15;;
44143;SDS011;68165;51.920;4.492;2023-05-07T09:22:13;14.85;;;8.60;;
44143;SDS011;68165;51.920;4.492;2023-05-07T09:24:39;12.70;;;7.77;;
44143;SDS011;68165;51.920;4.492;2023-05-07T09:27:05;13.60;;;8.17;;
44143;SDS011;68165;51.920;4.492;2023-05-07T09:29:31;12.23;;;7.25;;
44143;SDS011;68165;51.920;4.492;2023-05-07T09:32:03;14.27;;;7.53;;
44143;SDS011;68165;51.920;4.492;2023-05-07T09:34:30;12.05;;;7.38;;
44143;SDS011;68165;51.920;4.492;2023-05-07T09:36:56;12.55;;;7.95;;
44143;SDS011;68165;51.920;4.492;2023-05-07T09:39:25;13.15;;;7.43;;
44143;SDS011;68165;51.920;4.492;2023-05-07T09:41:50;11.77;;;6.50;;
44143;SDS011;68165;51.920;4.492;2023-05-07T09:44:19;11.10;;;6.82;;
44143;SDS011;68165;51.920;4.492;2023-05-07T09:46:45;13.38;;;7.20;;
44143;SDS011;68165;51.920;4.492;2023-05-07T09:49:20;11.70;;;7.10;;
44143;SDS011;68165;51.920;4.492;2023-05-07T09:51:50;12.85;;;6.90;;
44143;SDS011;68165;51.920;4.492;2023-05-07T09:54:17;13.98;;;6.85;;
44143;SDS011;68165;51.920;4.492;2023-05-07T09:56:44;10.40;;;6.15;;
44143;SDS011;68165;51.920;4.492;2023-05-07T09:59:12;12.55;;;7.38;;
44143;SDS011;68165;51.920;4.492;2023-05-07T10:01:40;12.02;;;6.90;;
44143;SDS011;68165;51.920;4.492;2023-05-07T10:04:07;10.32;;;6.20;;
44143;SDS011;68165;51.920;4.492;2023-05-07T10:06:34;13.80;;;7.88;;
44143;SDS011;68165;51.920;4.492;2023-05-07T10:09:00;14.70;;;7.05;;
44143;SDS011;68165;51.920;4.492;2023-05-07T10:11:26;13.05;;;5.90;;
44143;SDS011;68165;51.920;4.492;2023-05-07T10:13:53;11.10;;;5.97;;
44143;SDS011;68165;51.920;4.492;2023-05-07T10:16:19;10.88;;;6.07;;
44143;SDS011;68165;51.920;4.492;2023-05-07T10:18:46;10.20;;;5.30;;
44143;SDS011;68165;51.920;4.492;2023-05-07T10:21:18;11.23;;;5.85;;
44143;SDS011;68165;51.920;4.492;2023-05-07T10:23:48;11.07;;;6.40;;
44143;SDS011;68165;51.920;4.492;2023-05-07T10:26:20;11.20;;;6.32;;
44143;SDS011;68165;51.920;4.492;2023-05-07T10:28:49;11.35;;;5.97;;
44143;SDS011;68165;51.920;4.492;2023-05-07T10:31:35;10.77;;;5.45;;
44143;SDS011;68165;51.920;4.492;2023-05-07T10:34:26;10.32;;;5.85;;
44143;SDS011;68165;51.920;4.492;2023-05-07T10:36:55;9.85;;;5.88;;
44143;SDS011;68165;51.920;4.492;2023-05-07T10:39:22;11.70;;;5.73;;
44143;SDS011;68165;51.920;4.492;2023-05-07T10:41:48;10.20;;;5.43;;
44143;SDS011;68165;51.920;4.492;2023-05-07T10:44:27;11.57;;;5.72;;
44143;SDS011;68165;51.920;4.492;2023-05-07T10:47:10;10.93;;;5.10;;
44143;SDS011;68165;51.920;4.492;2023-05-07T10:52:18;10.75;;;5.43;;
44143;SDS011;68165;51.920;4.492;2023-05-07T10:54:45;10.40;;;4.95;;
44143;SDS011;68165;51.920;4.492;2023-05-07T10:59:58;11.90;;;4.85;;
44143;SDS011;68165;51.920;4.492;2023-05-07T11:02:38;12.13;;;5.77;;
44143;SDS011;68165;51.920;4.492;2023-05-07T11:05:25;10.95;;;5.05;;
44143;SDS011;68165;51.920;4.492;2023-05-07T11:07:56;11.10;;;5.60;;
44143;SDS011;68165;51.920;4.492;2023-05-07T11:10:22;10.45;;;4.68;;
44143;SDS011;68165;51.920;4.492;2023-05-07T11:12:51;12.50;;;5.15;;
44143;SDS011;68165;51.920;4.492;2023-05-07T11:15:34;11.65;;;5.55;;
44143;SDS011;68165;51.920;4.492;2023-05-07T11:18:04;9.23;;;5.00;;
44143;SDS011;68165;51.920;4.492;2023-05-07T11:28:39;11.55;;;5.40;;
44143;SDS011;68165;51.920;4.492;2023-05-07T11:31:06;11.75;;;4.85;;
44143;SDS011;68165;51.920;4.492;2023-05-07T11:33:32;10.48;;;5.05;;
44143;SDS011;68165;51.920;4.492;2023-05-07T11:35:59;11.63;;;5.10;;
44143;SDS011;68165;51.920;4.492;2023-05-07T11:38:25;12.30;;;5.38;;
44143;SDS011;68165;51.920;4.492;2023-05-07T11:43:17;11.00;;;5.07;;
44143;SDS011;68165;51.920;4.492;2023-05-07T11:45:42;13.65;;;5.93;;
44143;SDS011;68165;51.920;4.492;2023-05-07T11:48:07;10.10;;;5.60;;
44143;SDS011;68165;51.920;4.492;2023-05-07T11:50:33;10.37;;;5.43;;
44143;SDS011;68165;51.920;4.492;2023-05-07T11:52:58;13.27;;;6.00;;
44143;SDS011;68165;51.920;4.492;2023-05-07T11:55:24;10.75;;;5.30;;
44143;SDS011;68165;51.920;4.492;2023-05-07T11:57:51;11.87;;;5.87;;
44143;SDS011;68165;51.920;4.492;2023-05-07T12:00:16;10.93;;;5.20;;
44143;SDS011;68165;51.920;4.492;2023-05-07T12:02:42;11.03;;;4.67;;
44143;SDS011;68165;51.920;4.492;2023-05-07T12:05:08;9.63;;;4.47;;
44143;SDS011;68165;51.920;4.492;2023-05-07T12:07:34;11.63;;;5.10;;
44143;SDS011;68165;51.920;4.492;2023-05-07T12:10:03;8.63;;;4.60;;
44143;SDS011;68165;51.920;4.492;2023-05-07T12:12:29;11.45;;;4.85;;
44143;SDS011;68165;51.920;4.492;2023-05-07T12:14:55;9.00;;;4.03;;
44143;SDS011;68165;51.920;4.492;2023-05-07T12:17:20;10.03;;;4.50;;
44143;SDS011;68165;51.920;4.492;2023-05-07T12:19:48;8.13;;;4.28;;
44143;SDS011;68165;51.920;4.492;2023-05-07T12:22:14;12.15;;;4.25;;
44143;SDS011;68165;51.920;4.492;2023-05-07T12:27:12;9.02;;;4.63;;
44143;SDS011;68165;51.920;4.492;2023-05-07T12:29:38;12.90;;;5.43;;
44143;SDS011;68165;51.920;4.492;2023-05-07T12:32:06;9.18;;;4.70;;
44143;SDS011;68165;51.920;4.492;2023-05-07T12:34:32;10.88;;;4.93;;
44143;SDS011;68165;51.920;4.492;2023-05-07T12:36:57;11.97;;;5.90;;
44143;SDS011;68165;51.920;4.492;2023-05-07T12:39:27;11.10;;;6.28;;
44143;SDS011;68165;51.920;4.492;2023-05-07T12:41:53;10.13;;;5.45;;
44143;SDS011;68165;51.920;4.492;2023-05-07T12:44:23;15.50;;;6.93;;
44143;SDS011;68165;51.920;4.492;2023-05-07T12:46:49;12.77;;;7.22;;
44143;SDS011;68165;51.920;4.492;2023-05-07T12:49:15;11.50;;;6.80;;
44143;SDS011;68165;51.920;4.492;2023-05-07T12:51:40;13.48;;;7.30;;
44143;SDS011;68165;51.920;4.492;2023-05-07T12:54:05;21.30;;;10.47;;
44143;SDS011;68165;51.920;4.492;2023-05-07T12:56:31;14.53;;;8.37;;
44143;SDS011;68165;51.920;4.492;2023-05-07T12:59:01;13.75;;;8.38;;
44143;SDS011;68165;51.920;4.492;2023-05-07T13:01:30;13.45;;;7.97;;
44143;SDS011;68165;51.920;4.492;2023-05-07T13:03:58;18.08;;;9.57;;
44143;SDS011;68165;51.920;4.492;2023-05-07T13:06:26;15.77;;;8.20;;
44143;SDS011;68165;51.920;4.492;2023-05-07T13:08:51;16.10;;;8.27;;
44143;SDS011;68165;51.920;4.492;2023-05-07T13:11:16;13.37;;;7.33;;
44143;SDS011;68165;51.920;4.492;2023-05-07T13:13:42;14.50;;;7.40;;
44143;SDS011;68165;51.920;4.492;2023-05-07T13:16:08;12.93;;;7.10;;
44143;SDS011;68165;51.920;4.492;2023-05-07T13:18:36;16.45;;;7.80;;
44143;SDS011;68165;51.920;4.492;2023-05-07T13:21:03;12.73;;;6.28;;
44143;SDS011;68165;51.920;4.492;2023-05-07T13:23:29;13.40;;;6.55;;
44143;SDS011;68165;51.920;4.492;2023-05-07T13:25:55;13.57;;;6.80;;
44143;SDS011;68165;51.920;4.492;2023-05-07T13:28:21;13.90;;;6.80;;
44143;SDS011;68165;51.920;4.492;2023-05-07T13:30:47;11.30;;;6.50;;
44143;SDS011;68165;51.920;4.492;2023-05-07T13:33:13;14.97;;;7.63;;
44143;SDS011;68165;51.920;4.492;2023-05-07T13:35:38;16.33;;;8.83;;
44143;SDS011;68165;51.920;4.492;2023-05-07T13:38:04;16.10;;;9.17;;
44143;SDS011;68165;51.920;4.492;2023-05-07T13:40:30;19.00;;;9.70;;
44143;SDS011;68165;51.920;4.492;2023-05-07T13:42:56;17.83;;;9.00;;
44143;SDS011;68165;51.920;4.492;2023-05-07T13:45:23;18.75;;;8.98;;
44143;SDS011;68165;51.920;4.492;2023-05-07T13:47:51;17.50;;;9.38;;
44143;SDS011;68165;51.920;4.492;2023-05-07T13:50:16;16.73;;;8.25;;
44143;SDS011;68165;51.920;4.492;2023-05-07T13:52:45;17.25;;;9.32;;
44143;SDS011;68165;51.920;4.492;2023-05-07T13:55:15;16.25;;;8.35;;
44143;SDS011;68165;51.920;4.492;2023-05-07T13:57:42;18.38;;;8.52;;
44143;SDS011;68165;51.920;4.492;2023-05-07T14:00:08;16.33;;;9.23;;
44143;SDS011;68165;51.920;4.492;2023-05-07T14:02:34;16.63;;;8.60;;
44143;SDS011;68165;51.920;4.492;2023-05-07T14:04:59;17.43;;;9.27;;
44143;SDS011;68165;51.920;4.492;2023-05-07T14:07:24;19.57;;;9.73;;
44143;SDS011;68165;51.920;4.492;2023-05-07T14:09:50;18.57;;;9.13;;
44143;SDS011;68165;51.920;4.492;2023-05-07T14:12:15;15.50;;;8.35;;
44143;SDS011;68165;51.920;4.492;2023-05-07T14:14:40;19.20;;;9.03;;
44143;SDS011;68165;51.920;4.492;2023-05-07T14:17:06;15.93;;;8.13;;
44143;SDS011;68165;51.920;4.492;2023-05-07T14:19:33;15.40;;;8.50;;
44143;SDS011;68165;51.920;4.492;2023-05-07T14:21:58;15.80;;;8.97;;
44143;SDS011;68165;51.920;4.492;2023-05-07T14:24:24;19.60;;;9.27;;
44143;SDS011;68165;51.920;4.492;2023-05-07T14:26:49;17.73;;;9.23;;
44143;SDS011;68165;51.920;4.492;2023-05-07T14:29:15;17.80;;;8.80;;
44143;SDS011;68165;51.920;4.492;2023-05-07T14:31:43;17.38;;;9.73;;
44143;SDS011;68165;51.920;4.492;2023-05-07T14:34:09;18.73;;;9.27;;
44143;SDS011;68165;51.920;4.492;2023-05-07T14:36:34;15.70;;;8.47;;
44143;SDS011;68165;51.920;4.492;2023-05-07T14:39:00;17.90;;;9.27;;
44143;SDS011;68165;51.920;4.492;2023-05-07T14:41:25;16.38;;;10.15;;